Terminal Aerodrome Forecast
Issued by NWS Denver/Boulder, CO

Home | Current Version | Previous Version | Text Only | Print | Product List | Glossary On
Versions: 1 2 3 4 5 6 7 8 9 10 11 12 13 14 15 16 17 18 19 20 21 22 23 24 25 26 27 28 29 30 31 32 33 34 35 36 37 38
000
FTUS45 KBOU 220310 AAA
TAFDEN
TAF AMD
KDEN 220310Z 2203/2306 19012G20KT P6SM FEW140 BKN250
     FM221200 21010KT P6SM SCT120 BKN220
     FM222000 23014G22KT P6SM SCT080 BKN120
      TEMPO 2220/2224 BKN080=

USA.gov is the U.S. government's official web portal to all federal, state and local government web resources and services.